createdAt,value
2018-03-08T00:02:27.223Z,4.46
2018-03-08T00:04:53.116Z,4.42
2018-03-08T00:07:22.724Z,4.42
2018-03-08T00:09:48.608Z,4.43
2018-03-08T00:12:16.463Z,4.47
2018-03-08T00:14:42.338Z,4.50
2018-03-08T00:17:12.196Z,4.53
2018-03-08T00:19:38.086Z,4.47
2018-03-08T00:22:03.960Z,4.52
2018-03-08T00:24:29.810Z,4.57
2018-03-08T00:26:55.697Z,4.62
2018-03-08T00:29:22.162Z,4.62
2018-03-08T00:31:48.078Z,4.64
2018-03-08T00:34:16.758Z,4.66
2018-03-08T00:36:42.660Z,4.69
2018-03-08T00:39:11.344Z,4.65
2018-03-08T00:41:37.233Z,4.63
2018-03-08T00:44:06.097Z,4.65
2018-03-08T00:46:31.981Z,4.62
2018-03-08T00:49:00.712Z,4.62
2018-03-08T00:51:26.583Z,4.61
2018-03-08T00:53:55.385Z,4.48
2018-03-08T00:56:21.263Z,4.57
2018-03-08T00:58:47.190Z,4.45
2018-03-08T01:01:13.087Z,4.44
2018-03-08T01:03:39.008Z,4.42
2018-03-08T01:06:08.784Z,4.41
2018-03-08T01:08:34.681Z,4.39
2018-03-08T01:11:03.869Z,4.44
2018-03-08T01:13:29.766Z,4.51
2018-03-08T01:15:57.465Z,4.50
2018-03-08T01:18:23.325Z,4.54
2018-03-08T01:20:53.206Z,4.59
2018-03-08T01:23:19.111Z,4.57
2018-03-08T01:25:46.991Z,4.54
2018-03-08T01:28:12.916Z,4.60
2018-03-08T01:30:41.892Z,4.56
2018-03-08T01:33:07.778Z,4.59
2018-03-08T01:35:33.697Z,4.57
2018-03-08T01:37:59.601Z,4.56
2018-03-08T01:40:25.453Z,4.62
2018-03-08T01:42:52.659Z,4.56
2018-03-08T01:45:18.541Z,4.47
2018-03-08T01:47:47.969Z,4.42
2018-03-08T01:50:13.835Z,4.34
2018-03-08T01:52:41.938Z,4.32
2018-03-08T01:55:07.841Z,4.24
2018-03-08T01:57:36.737Z,4.26
2018-03-08T02:00:02.680Z,4.25
2018-03-08T02:02:31.638Z,4.18
2018-03-08T02:04:57.530Z,4.21
2018-03-08T02:07:26.204Z,4.23
2018-03-08T02:09:52.109Z,4.18
2018-03-08T02:12:18.033Z,4.13
2018-03-08T02:14:43.892Z,4.11
2018-03-08T02:17:09.781Z,4.06
2018-03-08T02:19:39.301Z,4.07
2018-03-08T02:22:05.197Z,4.06
2018-03-08T02:24:34.189Z,4.14
2018-03-08T02:27:00.064Z,4.12
2018-03-08T02:29:27.801Z,4.16
2018-03-08T02:31:53.673Z,4.13
2018-03-08T02:34:22.984Z,4.15
2018-03-08T02:36:48.891Z,4.20
2018-03-08T02:39:18.491Z,4.26
2018-03-08T02:41:44.385Z,4.24
2018-03-08T02:44:13.298Z,4.19
2018-03-08T02:46:39.185Z,4.23
2018-03-08T02:49:05.076Z,4.24
2018-03-08T02:51:30.968Z,4.19
2018-03-08T02:53:56.840Z,4.29
2018-03-08T02:56:23.855Z,4.27
2018-03-08T02:58:49.735Z,4.25
2018-03-08T03:01:19.500Z,4.23
2018-03-08T03:03:45.389Z,4.23
2018-03-08T03:06:13.510Z,4.23
2018-03-08T03:08:39.402Z,4.21
2018-03-08T03:11:09.106Z,4.16
2018-03-08T03:13:34.989Z,4.14
2018-03-08T03:16:02.735Z,4.13
2018-03-08T03:18:28.607Z,4.06
2018-03-08T03:20:58.348Z,4.05
2018-03-08T03:23:24.205Z,3.99
2018-03-08T03:25:50.095Z,3.97
2018-03-08T03:28:15.969Z,3.97
2018-03-08T03:30:41.835Z,3.84
2018-03-08T03:33:08.694Z,3.85
2018-03-08T03:35:34.567Z,3.82
2018-03-08T03:38:04.189Z,3.86
2018-03-08T03:40:30.062Z,3.83
2018-03-08T03:42:59.034Z,3.85
2018-03-08T03:45:24.902Z,3.80
2018-03-08T03:47:52.684Z,3.75
2018-03-08T03:50:18.568Z,3.79
2018-03-08T03:52:47.585Z,3.77
2018-03-08T03:55:13.488Z,3.78
2018-03-08T03:57:42.429Z,3.85
2018-03-08T04:00:10.782Z,3.79
2018-03-08T04:02:39.129Z,3.81
2018-03-08T04:05:05.025Z,3.75
2018-03-08T04:07:30.916Z,3.80
2018-03-08T04:09:56.793Z,3.77
2018-03-08T04:12:22.793Z,3.76
2018-03-08T04:14:48.674Z,3.62
2018-03-08T04:17:14.572Z,3.69
2018-03-08T04:19:43.466Z,3.63
2018-03-08T04:22:09.364Z,3.60
2018-03-08T04:24:38.319Z,3.55
2018-03-08T04:27:04.224Z,3.60
2018-03-08T04:29:34.052Z,3.61
2018-03-08T04:31:59.932Z,3.59
2018-03-08T04:34:27.753Z,3.61
2018-03-08T04:36:53.666Z,3.69
2018-03-08T04:39:19.583Z,3.70
2018-03-08T04:41:45.456Z,3.62
2018-03-08T04:44:11.358Z,3.66
2018-03-08T04:46:40.566Z,3.59
2018-03-08T04:49:06.443Z,3.58
2018-03-08T04:51:34.235Z,3.59
2018-03-08T04:54:00.148Z,3.60
2018-03-08T04:56:29.997Z,3.60
2018-03-08T04:58:55.886Z,3.51
2018-03-08T05:01:25.096Z,3.39
2018-03-08T05:03:50.980Z,3.34
2018-03-08T05:06:17.957Z,3.21
2018-03-08T05:08:43.874Z,3.26
2018-03-08T05:11:12.634Z,3.32
2018-03-08T05:13:38.530Z,3.29
2018-03-08T05:16:04.424Z,3.25
2018-03-08T05:18:30.320Z,3.27
2018-03-08T05:20:56.224Z,3.26
2018-03-08T05:23:24.753Z,3.34
2018-03-08T05:25:50.637Z,3.44
2018-03-08T05:28:19.240Z,3.49
2018-03-08T05:30:45.172Z,3.55
2018-03-08T05:33:13.866Z,3.65
2018-03-08T05:35:39.798Z,3.65
2018-03-08T05:38:08.532Z,3.67
2018-03-08T05:40:34.442Z,3.73
2018-03-08T05:43:03.189Z,3.78
2018-03-08T05:45:29.078Z,3.74
2018-03-08T05:47:57.865Z,3.73
2018-03-08T05:50:23.770Z,3.68
2018-03-08T05:52:49.678Z,3.67
2018-03-08T05:55:15.519Z,3.68
2018-03-08T05:57:41.403Z,3.59
2018-03-08T06:00:11.065Z,3.63
2018-03-08T06:02:36.926Z,3.55
2018-03-08T06:05:06.131Z,3.49
2018-03-08T06:07:32.819Z,3.48
2018-03-08T06:09:59.948Z,3.50
2018-03-08T06:12:25.835Z,3.52
2018-03-08T06:14:55.682Z,3.55
2018-03-08T06:17:21.553Z,3.60
2018-03-08T06:19:49.401Z,3.60
2018-03-08T06:22:15.296Z,3.56
2018-03-08T06:24:45.059Z,3.54
2018-03-08T06:27:10.949Z,3.57
2018-03-08T06:29:36.831Z,3.64
2018-03-08T06:32:02.745Z,3.69
2018-03-08T06:34:28.612Z,3.69
2018-03-08T06:36:55.963Z,3.69
2018-03-08T06:39:21.827Z,3.71
2018-03-08T06:41:51.567Z,3.72
2018-03-08T06:44:17.459Z,3.72
2018-03-08T06:46:46.366Z,3.77
2018-03-08T06:49:12.281Z,3.77
2018-03-08T06:51:39.047Z,3.73
2018-03-08T06:54:04.956Z,3.79
2018-03-08T06:56:33.723Z,3.81
2018-03-08T06:58:59.575Z,3.99
2018-03-08T07:01:28.238Z,4.38
2018-03-08T07:03:54.160Z,4.98
2018-03-08T07:06:20.039Z,5.33
2018-03-08T07:08:45.920Z,5.69
2018-03-08T07:11:11.784Z,6.14
2018-03-08T07:13:40.803Z,6.40
2018-03-08T07:16:06.792Z,6.61
2018-03-08T07:18:36.670Z,7.05
2018-03-08T07:21:02.553Z,7.58
2018-03-08T07:23:30.433Z,7.80
2018-03-08T07:25:56.262Z,8.04
2018-03-08T07:28:25.261Z,8.12
2018-03-08T07:30:51.131Z,8.57
2018-03-08T07:33:20.990Z,8.62
2018-03-08T07:35:46.870Z,8.20
2018-03-08T07:38:14.046Z,8.10
2018-03-08T07:40:39.901Z,7.93
2018-03-08T07:43:05.769Z,8.19
2018-03-08T07:45:31.650Z,8.54
2018-03-08T07:47:57.502Z,8.03
2018-03-08T07:50:27.235Z,8.51
2018-03-08T07:52:53.089Z,8.10
2018-03-08T07:55:22.029Z,8.53
2018-03-08T07:57:47.883Z,8.80
2018-03-08T08:00:15.714Z,8.92
2018-03-08T08:02:41.566Z,9.10
2018-03-08T08:05:23.031Z,8.98
2018-03-08T08:08:01.212Z,9.16
2018-03-08T08:10:27.087Z,9.72
2018-03-08T08:12:52.957Z,10.64
2018-03-08T08:15:18.863Z,10.86
2018-03-08T08:17:44.790Z,10.87
2018-03-08T08:20:10.685Z,11.40
2018-03-08T08:22:36.598Z,11.18
2018-03-08T08:25:02.527Z,11.62
2018-03-08T08:27:28.447Z,11.56
2018-03-08T08:29:54.330Z,11.45
2018-03-08T08:32:20.188Z,11.86
2018-03-08T08:34:46.091Z,12.08
2018-03-08T08:37:11.986Z,11.92
2018-03-08T08:39:37.842Z,11.58
2018-03-08T08:42:03.734Z,11.58
2018-03-08T08:44:29.590Z,11.17
2018-03-08T08:46:55.494Z,11.49
2018-03-08T08:49:22.196Z,11.60
2018-03-08T08:51:48.175Z,11.91
2018-03-08T08:54:14.053Z,12.40
2018-03-08T08:56:39.925Z,12.93
2018-03-08T08:59:05.802Z,12.67
2018-03-08T09:01:31.682Z,12.07
2018-03-08T09:03:57.591Z,12.28
2018-03-08T09:06:23.453Z,13.08
2018-03-08T09:08:52.343Z,12.99
2018-03-08T09:11:18.217Z,12.14
2018-03-08T09:13:47.142Z,11.84
2018-03-08T09:16:13.028Z,10.42
2018-03-08T09:18:40.602Z,9.83
2018-03-08T09:21:06.500Z,10.35
2018-03-08T09:23:36.321Z,10.21
2018-03-08T09:26:02.243Z,10.07
2018-03-08T09:28:30.034Z,10.56
2018-03-08T09:30:55.901Z,10.87
2018-03-08T09:33:21.777Z,10.52
2018-03-08T09:35:47.690Z,10.65
2018-03-08T09:38:13.568Z,11.11
2018-03-08T09:40:41.534Z,10.43
2018-03-08T09:43:07.405Z,9.42
2018-03-08T09:45:35.938Z,8.77
2018-03-08T09:48:01.828Z,8.35
2018-03-08T09:50:30.421Z,8.12
2018-03-08T09:52:56.275Z,8.02
2018-03-08T09:55:24.970Z,8.11
2018-03-08T09:57:50.841Z,8.20
2018-03-08T10:00:18.767Z,8.29
2018-03-08T10:02:44.638Z,8.32
2018-03-08T10:05:10.526Z,8.39
2018-03-08T10:07:37.212Z,8.65
2018-03-08T10:10:03.091Z,8.79
2018-03-08T10:12:32.383Z,8.93
2018-03-08T10:14:58.240Z,9.01
2018-03-08T10:17:27.671Z,8.83
2018-03-08T10:19:53.537Z,8.67
2018-03-08T10:22:23.328Z,8.79
2018-03-08T10:24:49.176Z,8.82
2018-03-08T10:27:17.050Z,8.87
2018-03-08T10:29:42.902Z,8.86
2018-03-08T10:32:12.824Z,9.00
2018-03-08T10:34:38.702Z,9.65
2018-03-08T10:37:05.640Z,9.20
2018-03-08T10:39:31.533Z,8.78
2018-03-08T10:42:01.170Z,8.58
2018-03-08T10:44:27.007Z,9.50
2018-03-08T10:46:52.868Z,10.34
2018-03-08T10:49:19.080Z,9.80
2018-03-08T10:51:44.984Z,9.49
2018-03-08T10:54:12.268Z,10.13
2018-03-08T10:56:38.119Z,9.78
2018-03-08T10:59:07.051Z,9.82
2018-03-08T11:01:32.900Z,9.72
2018-03-08T11:04:08.244Z,9.86
2018-03-08T11:06:36.038Z,10.17
2018-03-08T11:09:01.946Z,10.74
2018-03-08T11:11:27.842Z,10.91
2018-03-08T11:13:57.700Z,11.24
2018-03-08T11:16:26.484Z,11.56
2018-03-08T11:18:55.982Z,11.31
2018-03-08T11:21:25.613Z,11.30
2018-03-08T11:23:51.750Z,11.48
2018-03-08T11:26:17.638Z,11.60
2018-03-08T11:28:43.542Z,11.93
2018-03-08T11:31:09.406Z,11.96
2018-03-08T11:33:35.291Z,12.18
2018-03-08T11:36:01.203Z,11.97
2018-03-08T11:38:27.083Z,11.46
2018-03-08T11:40:52.954Z,11.32
2018-03-08T11:43:18.834Z,10.96
2018-03-08T11:45:44.756Z,11.07
2018-03-08T11:48:10.754Z,11.00
2018-03-08T11:50:36.545Z,10.92
2018-03-08T11:53:02.421Z,11.54
2018-03-08T11:55:31.904Z,11.63
2018-03-08T11:57:57.811Z,11.53
2018-03-08T12:00:23.686Z,11.26
2018-03-08T12:02:49.562Z,11.24
2018-03-08T12:05:15.466Z,11.14
2018-03-08T12:07:42.897Z,10.99
2018-03-08T12:10:08.784Z,11.39
2018-03-08T12:12:37.781Z,11.52
2018-03-08T12:15:03.678Z,11.56
2018-03-08T12:17:32.393Z,11.93
2018-03-08T12:19:58.258Z,12.17
2018-03-08T12:22:26.713Z,12.52
2018-03-08T12:24:52.634Z,12.42
2018-03-08T12:27:21.420Z,12.22
2018-03-08T12:29:47.292Z,12.06
2018-03-08T12:32:15.984Z,12.10
2018-03-08T12:34:41.902Z,12.35
2018-03-08T12:37:07.767Z,12.42
2018-03-08T12:39:33.681Z,12.36
2018-03-08T12:41:59.584Z,12.55
2018-03-08T12:44:29.022Z,12.68
2018-03-08T12:46:54.897Z,12.62
2018-03-08T12:49:23.897Z,12.93
2018-03-08T12:51:49.808Z,12.93
2018-03-08T12:54:17.448Z,12.87
2018-03-08T12:56:43.328Z,12.63
2018-03-08T12:59:12.797Z,12.21
2018-03-08T13:01:38.681Z,12.44
2018-03-08T13:04:07.817Z,12.94
2018-03-08T13:06:33.808Z,12.86
2018-03-08T13:09:01.514Z,12.93
2018-03-08T13:11:27.383Z,13.01
2018-03-08T13:13:53.282Z,12.59
2018-03-08T13:16:19.164Z,12.55
2018-03-08T13:18:45.027Z,12.97
2018-03-08T13:21:13.354Z,12.79
2018-03-08T13:23:39.244Z,12.51
2018-03-08T13:26:07.906Z,12.63
2018-03-08T13:28:33.828Z,12.77
2018-03-08T13:31:02.728Z,12.79
2018-03-08T13:33:28.642Z,12.81
2018-03-08T13:35:57.327Z,12.57
2018-03-08T13:38:23.202Z,12.53
2018-03-08T13:40:53.719Z,12.53
2018-03-08T13:43:19.614Z,12.24
2018-03-08T13:45:48.642Z,12.16
2018-03-08T13:48:14.534Z,12.02
2018-03-08T13:50:40.435Z,12.29
2018-03-08T13:53:06.284Z,13.04
2018-03-08T13:55:32.173Z,13.38
2018-03-08T13:57:59.349Z,13.17
2018-03-08T14:00:25.278Z,13.37
2018-03-08T14:02:54.187Z,13.21
2018-03-08T14:05:20.070Z,13.22
2018-03-08T14:07:49.929Z,13.27
2018-03-08T14:10:15.846Z,13.24
2018-03-08T14:12:42.857Z,13.20
2018-03-08T14:15:08.695Z,13.01
2018-03-08T14:17:38.248Z,12.92
2018-03-08T14:22:56.921Z,13.16
2018-03-08T14:25:22.773Z,13.27
2018-03-08T14:27:48.646Z,13.56
2018-03-08T14:30:14.540Z,13.49
2018-03-08T14:32:40.439Z,13.13
2018-03-08T14:35:06.328Z,13.02
2018-03-08T14:37:32.207Z,12.83
2018-03-08T14:39:58.117Z,12.74
2018-03-08T14:42:24.034Z,12.89
2018-03-08T14:44:49.918Z,12.68
2018-03-08T14:47:15.814Z,12.91
2018-03-08T14:49:41.689Z,12.83
2018-03-08T14:52:07.832Z,13.24
2018-03-08T14:54:33.727Z,13.58
2018-03-08T14:56:59.602Z,13.81
2018-03-08T14:59:25.513Z,13.45
2018-03-08T15:01:51.404Z,13.94
2018-03-08T15:04:17.295Z,14.05
2018-03-08T15:06:43.158Z,13.85
2018-03-08T15:09:09.035Z,13.85
2018-03-08T15:11:34.943Z,13.61
2018-03-08T15:14:00.841Z,13.75
2018-03-08T15:16:26.745Z,13.66
2018-03-08T15:18:52.636Z,13.69
2018-03-08T15:21:18.509Z,13.63
2018-03-08T15:23:44.423Z,13.53
2018-03-08T15:26:13.191Z,13.15
2018-03-08T15:28:39.115Z,12.79
2018-03-08T15:31:07.782Z,12.80
2018-03-08T15:33:33.689Z,12.86
2018-03-08T15:36:02.560Z,12.67
2018-03-08T15:38:28.458Z,12.48
2018-03-08T15:40:54.350Z,12.28
2018-03-08T15:43:20.246Z,12.36
2018-03-08T15:45:46.181Z,12.29
2018-03-08T15:48:15.334Z,12.17
2018-03-08T15:50:41.278Z,12.19
2018-03-08T15:53:11.081Z,12.16
2018-03-08T15:55:36.951Z,11.94
2018-03-08T15:58:04.082Z,11.98
2018-03-08T16:00:29.973Z,12.07
2018-03-08T16:02:59.371Z,12.03
2018-03-08T16:05:25.236Z,11.76
2018-03-08T16:10:54.181Z,11.87
2018-03-08T16:13:20.084Z,11.90
2018-03-08T16:15:45.974Z,11.77
2018-03-08T16:18:11.913Z,11.66
2018-03-08T16:20:37.790Z,11.48
2018-03-08T16:23:03.695Z,11.38
2018-03-08T16:25:29.616Z,11.41
2018-03-08T16:27:55.485Z,11.32
2018-03-08T16:30:21.399Z,11.33
2018-03-08T16:32:47.290Z,11.23
2018-03-08T16:35:13.164Z,11.23
2018-03-08T16:37:39.089Z,11.22
2018-03-08T16:40:05.014Z,11.16
2018-03-08T16:42:30.904Z,11.08
2018-03-08T16:44:56.806Z,11.09
2018-03-08T16:47:22.708Z,11.02
2018-03-08T16:49:48.599Z,11.05
2018-03-08T16:52:14.615Z,11.05
2018-03-08T16:54:40.501Z,11.01
2018-03-08T16:57:06.365Z,11.02
2018-03-08T16:59:32.288Z,11.07
2018-03-08T17:01:58.207Z,11.09
2018-03-08T17:04:24.113Z,11.09
2018-03-08T17:06:50.030Z,11.08
2018-03-08T17:09:15.935Z,10.92
2018-03-08T17:11:41.829Z,10.80
2018-03-08T17:14:07.743Z,10.71
2018-03-08T17:16:33.642Z,10.67
2018-03-08T17:18:59.525Z,10.60
2018-03-08T17:21:25.404Z,10.54
2018-03-08T17:23:51.294Z,10.55
2018-03-08T17:26:20.362Z,10.50
2018-03-08T17:28:46.256Z,10.35
2018-03-08T17:31:12.174Z,10.39
2018-03-08T17:33:38.089Z,10.35
2018-03-08T17:36:04.019Z,10.26
2018-03-08T17:38:31.139Z,10.25
2018-03-08T17:40:56.996Z,10.19
2018-03-08T17:43:25.339Z,10.16
2018-03-08T17:45:51.262Z,10.16
2018-03-08T17:48:20.790Z,10.13
2018-03-08T17:50:46.647Z,10.01
2018-03-08T17:53:16.180Z,9.99
2018-03-08T17:55:42.075Z,9.91
2018-03-08T17:58:09.194Z,9.90
2018-03-08T18:00:35.109Z,9.80
2018-03-08T18:03:03.926Z,9.74
2018-03-08T18:05:29.815Z,9.69
2018-03-08T18:07:55.758Z,9.53
2018-03-08T18:10:21.681Z,9.50
2018-03-08T18:12:47.576Z,9.42
2018-03-08T18:15:16.647Z,9.34
2018-03-08T18:17:42.550Z,9.27
2018-03-08T18:20:11.960Z,9.21
2018-03-08T18:22:37.834Z,9.15
2018-03-08T18:25:07.010Z,9.16
2018-03-08T18:30:23.113Z,9.08
2018-03-08T18:32:48.994Z,9.03
2018-03-08T18:35:14.986Z,9.01
2018-03-08T18:37:40.915Z,9.02
2018-03-08T18:40:06.819Z,8.92
2018-03-08T18:42:32.678Z,8.93
2018-03-08T18:44:58.618Z,8.92
2018-03-08T18:47:24.485Z,8.85
2018-03-08T18:49:50.344Z,8.83
2018-03-08T18:52:16.225Z,8.86
2018-03-08T18:54:42.124Z,8.84
2018-03-08T18:57:07.988Z,8.83
2018-03-08T18:59:33.864Z,8.78
2018-03-08T19:01:59.738Z,8.78
2018-03-08T19:04:25.668Z,8.74
2018-03-08T19:06:51.578Z,8.73
2018-03-08T19:09:17.537Z,8.71
2018-03-08T19:11:43.411Z,8.69
2018-03-08T19:14:09.286Z,8.66
2018-03-08T19:16:35.203Z,8.66
2018-03-08T19:19:01.107Z,8.66
2018-03-08T19:21:26.996Z,8.63
2018-03-08T19:23:52.881Z,8.65
2018-03-08T19:26:18.801Z,8.62
2018-03-08T19:28:46.524Z,8.61
2018-03-08T19:31:12.456Z,8.64
2018-03-08T19:33:41.775Z,8.64
2018-03-08T19:36:07.648Z,8.65
2018-03-08T19:38:35.795Z,8.65
2018-03-08T19:41:01.666Z,8.65
2018-03-08T19:43:30.749Z,8.66
2018-03-08T19:45:56.626Z,8.68
2018-03-08T19:48:25.668Z,8.67
2018-03-08T19:50:51.566Z,8.67
2018-03-08T19:53:20.665Z,8.66
2018-03-08T19:55:46.559Z,8.71
2018-03-08T19:58:12.455Z,8.71
2018-03-08T20:00:38.372Z,8.69
2018-03-08T20:03:04.242Z,8.65
2018-03-08T20:05:33.464Z,8.66
2018-03-08T20:07:59.370Z,8.68
2018-03-08T20:10:26.030Z,8.65
2018-03-08T20:12:51.900Z,8.68
2018-03-08T20:15:21.653Z,8.66
2018-03-08T20:17:47.546Z,8.69
2018-03-08T20:20:16.935Z,8.70
2018-03-08T20:22:42.812Z,8.67
2018-03-08T20:25:10.327Z,8.68
2018-03-08T20:27:36.195Z,8.75
2018-03-08T20:30:04.727Z,8.74
2018-03-08T20:32:30.594Z,8.68
2018-03-08T20:34:56.469Z,8.67
2018-03-08T20:37:22.376Z,8.65
2018-03-08T20:39:48.256Z,8.68
2018-03-08T20:42:17.889Z,8.67
2018-03-08T20:44:43.774Z,8.70
2018-03-08T20:47:13.240Z,8.67
2018-03-08T20:49:40.992Z,8.64
2018-03-08T20:52:06.874Z,8.58
2018-03-08T20:54:32.751Z,8.56
2018-03-08T20:57:02.730Z,8.56
2018-03-08T20:59:28.610Z,8.51
2018-03-08T21:01:55.943Z,8.50
2018-03-08T21:04:21.853Z,8.42
2018-03-08T21:06:51.407Z,8.33
2018-03-08T21:09:17.285Z,8.26
2018-03-08T21:11:43.123Z,8.22
2018-03-08T21:14:09.013Z,8.15
2018-03-08T21:16:34.954Z,8.14
2018-03-08T21:19:02.210Z,8.12
2018-03-08T21:21:28.131Z,8.10
2018-03-08T21:23:57.255Z,8.13
2018-03-08T21:26:23.143Z,8.13
2018-03-08T21:31:40.971Z,8.19
2018-03-08T21:34:06.846Z,8.27
2018-03-08T21:36:32.770Z,8.33
2018-03-08T21:38:58.713Z,8.43
2018-03-08T21:41:24.654Z,8.47
2018-03-08T21:43:50.544Z,8.51
2018-03-08T21:46:16.492Z,8.50
2018-03-08T21:48:42.415Z,8.51
2018-03-08T21:51:08.322Z,8.52
2018-03-08T21:53:34.264Z,8.54
2018-03-08T21:56:00.201Z,8.56
2018-03-08T21:58:26.076Z,8.53
2018-03-08T22:00:52.001Z,8.55
2018-03-08T22:03:17.898Z,8.58
2018-03-08T22:05:43.820Z,8.65
2018-03-08T22:08:09.722Z,8.71
2018-03-08T22:10:35.579Z,8.71
2018-03-08T22:13:01.450Z,8.64
2018-03-08T22:15:27.439Z,8.57
2018-03-08T22:17:53.366Z,8.41
2018-03-08T22:20:21.288Z,8.44
2018-03-08T22:22:47.173Z,8.35
2018-03-08T22:25:13.087Z,8.37
2018-03-08T22:27:39.001Z,8.45
2018-03-08T22:30:05.088Z,8.33
2018-03-08T22:32:34.620Z,8.25
2018-03-08T22:35:00.492Z,8.15
2018-03-08T22:37:27.993Z,8.06
2018-03-08T22:39:53.885Z,7.86
2018-03-08T22:42:23.252Z,7.74
2018-03-08T22:44:49.134Z,7.61
2018-03-08T22:47:18.205Z,7.57
2018-03-08T22:49:44.094Z,7.60
2018-03-08T22:52:13.340Z,7.56
2018-03-08T22:54:39.226Z,7.48
2018-03-08T22:57:06.804Z,7.50
2018-03-08T22:59:32.746Z,7.53
2018-03-08T23:02:13.604Z,7.50
2018-03-08T23:04:39.522Z,7.40
2018-03-08T23:07:05.442Z,7.40
2018-03-08T23:09:31.322Z,7.43
2018-03-08T23:11:57.234Z,7.34
2018-03-08T23:14:23.145Z,7.20
2018-03-08T23:16:49.036Z,7.26
2018-03-08T23:19:14.955Z,7.32
2018-03-08T23:21:40.892Z,7.34
2018-03-08T23:24:06.802Z,7.34
2018-03-08T23:26:32.705Z,7.40
2018-03-08T23:28:58.635Z,7.43
2018-03-08T23:31:24.540Z,7.46
2018-03-08T23:33:52.198Z,7.38
2018-03-08T23:36:18.115Z,7.16
2018-03-08T23:38:44.006Z,7.10
2018-03-08T23:41:09.886Z,7.01
2018-03-08T23:43:35.825Z,6.98
2018-03-08T23:46:05.104Z,6.84
2018-03-08T23:48:30.949Z,6.87
2018-03-08T23:50:57.888Z,6.81
2018-03-08T23:53:23.764Z,6.95
2018-03-08T23:55:52.437Z,6.99
2018-03-08T23:58:18.334Z,7.08
